createdAt,value
2019-04-23T03:32:45.759Z,100189.81
2019-04-23T03:34:19.771Z,100182.20
2019-04-23T03:36:33.697Z,100182.87
2019-04-23T03:37:23.236Z,100183.14
2019-04-23T03:38:35.670Z,100183.77
2019-04-23T03:39:05.331Z,100183.69
2019-04-23T03:42:37.237Z,100182.51
2019-04-23T03:43:25.971Z,100182.20
2019-04-23T03:44:25.497Z,100181.80
2019-04-23T03:45:26.657Z,100181.67
2019-04-23T03:46:24.276Z,100181.83
2019-04-23T03:47:32.857Z,100181.88
2019-04-23T03:49:15.273Z,100182.55
2019-04-23T03:50:23.371Z,100182.55
2019-04-23T03:51:34.114Z,100183.22
2019-04-23T03:53:32.694Z,100183.69
2019-04-23T03:55:28.198Z,100183.66
2019-04-23T03:56:45.088Z,100184.34
2019-04-23T03:57:31.069Z,100184.19
2019-04-23T04:03:51.709Z,100183.09
2019-04-23T04:04:24.798Z,100183.15
2019-04-23T04:05:33.706Z,100182.73
2019-04-23T04:08:25.958Z,100182.53
2019-04-23T04:10:28.922Z,100182.86
2019-04-23T04:11:21.983Z,100182.28
2019-04-23T04:12:29.370Z,100182.16
2019-04-23T04:13:31.444Z,100181.50
2019-04-23T04:14:38.109Z,100181.73
2019-04-23T04:15:46.279Z,100181.50
2019-04-23T04:16:28.434Z,100181.30
2019-04-23T04:17:41.666Z,100180.81
2019-04-23T04:18:38.593Z,100180.57
2019-04-23T04:19:34.009Z,100180.25
2019-04-23T04:20:32.990Z,100180.61
2019-04-23T04:22:39.960Z,100179.59
2019-04-23T04:24:34.669Z,100179.11
2019-04-23T04:25:33.779Z,100178.52
2019-04-23T04:26:55.805Z,100177.89
2019-04-23T04:27:38.402Z,100177.66
2019-04-23T04:28:38.822Z,100177.11
2019-04-23T04:29:39.587Z,100176.48
2019-04-23T04:30:38.012Z,100175.98
2019-04-23T04:31:42.445Z,100175.86
2019-04-23T04:32:33.709Z,100175.19
2019-04-23T04:33:48.920Z,100174.81
2019-04-23T04:35:47.694Z,100173.98
2019-04-23T04:38:40.129Z,100172.37
2019-04-23T04:39:42.886Z,100171.88
2019-04-23T04:40:42.439Z,100171.09
2019-04-23T04:41:40.559Z,100170.20
2019-04-23T04:42:46.850Z,100169.63
2019-04-23T04:44:11.614Z,100168.36
2019-04-23T04:47:42.191Z,100164.73
2019-04-23T04:48:50.673Z,100163.89
2019-04-23T04:49:54.796Z,100162.87
2019-04-23T04:51:00.450Z,100161.70
2019-04-23T04:52:48.818Z,100160.77
2019-04-23T04:54:30.936Z,100159.11
2019-04-23T04:55:48.087Z,100158.52
2019-04-23T04:56:51.314Z,100157.88
2019-04-23T04:58:46.816Z,100156.34
2019-04-23T04:59:54.190Z,100155.80
2019-04-23T05:01:03.949Z,100155.20
2019-04-23T05:01:52.089Z,100153.94
2019-04-23T05:03:05.902Z,100153.14
2019-04-23T05:04:07.317Z,100152.71
2019-04-23T05:07:02.471Z,100150.73
2019-04-23T05:09:55.185Z,100149.17
2019-04-23T05:11:07.784Z,100148.66
2019-04-23T05:11:51.886Z,100148.16
2019-04-23T05:12:43.829Z,100147.66
2019-04-23T05:15:50.188Z,100144.88
2019-04-23T05:16:50.556Z,100144.37
2019-04-23T05:18:00.285Z,100143.19
2019-04-23T05:18:53.535Z,100142.59
2019-04-23T05:19:52.762Z,100142.30
2019-04-23T05:20:58.199Z,100142.34
2019-04-23T05:22:00.543Z,100141.41
2019-04-23T05:23:05.981Z,100140.42
2019-04-23T05:23:54.361Z,100139.82
2019-04-23T05:24:52.531Z,100139.27
2019-04-23T05:25:49.940Z,100138.79
2019-04-23T05:26:51.511Z,100137.89
2019-04-23T05:28:05.974Z,100137.21
2019-04-23T05:31:53.512Z,100134.34
2019-04-23T05:32:57.978Z,100133.42
2019-04-23T05:33:59.916Z,100132.91
2019-04-23T05:35:00.009Z,100132.80
2019-04-23T05:38:08.742Z,100130.56
2019-04-23T05:40:00.431Z,100129.67
2019-04-23T05:41:10.378Z,100129.38
2019-04-23T05:42:13.696Z,100128.95
2019-04-23T05:42:58.423Z,100128.56
2019-04-23T05:44:04.672Z,100128.17
2019-04-23T05:46:09.658Z,100126.57
2019-04-23T05:46:59.901Z,100125.42
2019-04-23T05:48:06.865Z,100124.72
2019-04-23T05:49:09.704Z,100124.33
2019-04-23T05:50:12.685Z,100123.43
2019-04-23T05:51:09.625Z,100122.50
2019-04-23T05:52:04.463Z,100121.77
2019-04-23T05:53:07.840Z,100121.16
2019-04-23T05:54:08.765Z,100120.66
2019-04-23T05:55:09.124Z,100119.69
2019-04-23T05:57:01.982Z,100118.95
2019-04-23T05:58:08.881Z,100118.13
2019-04-23T06:00:13.849Z,100117.16
2019-04-23T06:01:28.189Z,100116.27
2019-04-23T06:02:04.781Z,100115.62
2019-04-23T06:03:14.816Z,100114.97
2019-04-23T06:04:24.521Z,100114.31
2019-04-23T06:05:13.100Z,100113.50
2019-04-23T06:06:10.840Z,100113.38
2019-04-23T06:07:22.060Z,100112.13
2019-04-23T06:08:11.418Z,100111.34
2019-04-23T06:09:25.195Z,100110.30
2019-04-23T06:10:13.311Z,100109.38
2019-04-23T06:11:22.470Z,100108.86
2019-04-23T06:12:26.597Z,100108.23
2019-04-23T06:13:16.806Z,100107.03
2019-04-23T06:15:11.522Z,100105.52
2019-04-23T06:16:25.297Z,100104.55
2019-04-23T06:17:19.808Z,100103.22
2019-04-23T06:18:24.992Z,100102.02
2019-04-23T06:20:15.146Z,100100.03
2019-04-23T06:21:20.458Z,100099.00
2019-04-23T06:22:26.859Z,100097.75
2019-04-23T06:23:26.938Z,100096.73
2019-04-23T06:24:29.276Z,100095.30
2019-04-23T06:25:33.671Z,100094.13
2019-04-23T06:26:42.945Z,100093.34
2019-04-23T06:27:22.063Z,100092.25
2019-04-23T06:28:24.525Z,100091.14
2019-04-23T06:29:26.783Z,100089.59
2019-04-23T06:29:31.908Z,100063.98
2019-04-23T06:30:40.802Z,100067.80
2019-04-23T06:31:38.121Z,100067.36
2019-04-23T06:32:31.265Z,100067.55
2019-04-23T06:33:32.388Z,100067.31
2019-04-23T06:34:37.728Z,100066.83
2019-04-23T06:35:34.017Z,100066.03
2019-04-23T06:36:33.331Z,100065.50
2019-04-23T06:37:58.734Z,100064.91
2019-04-23T06:38:53.287Z,100064.17
2019-04-23T06:39:39.707Z,100063.41
2019-04-23T06:40:34.069Z,100062.78
2019-04-23T06:41:41.825Z,100062.23
2019-04-23T06:42:31.249Z,100061.27
2019-04-23T06:43:47.561Z,100060.50
2019-04-23T06:44:51.394Z,100059.64
2019-04-23T06:45:32.538Z,100059.03
2019-04-23T06:46:44.630Z,100058.23
2019-04-23T06:47:35.620Z,100057.87
2019-04-23T06:48:40.769Z,100057.27
2019-04-23T06:49:47.299Z,100056.58
2019-04-23T06:50:46.188Z,100055.85
2019-04-23T06:51:45.681Z,100055.08
2019-04-23T06:52:31.817Z,100053.64
2019-04-23T06:53:36.105Z,100052.50
2019-04-23T06:54:42.436Z,100051.22
2019-04-23T06:55:44.571Z,100050.19
2019-04-23T06:56:54.383Z,100049.44
2019-04-23T06:57:33.694Z,100049.11
2019-04-23T06:58:43.284Z,100047.74
2019-04-23T06:59:41.385Z,100047.62
2019-04-23T07:00:42.104Z,100046.14
2019-04-23T07:01:51.090Z,100045.34
2019-04-23T07:02:44.411Z,100044.30
2019-04-23T07:03:43.230Z,100043.47
2019-04-23T07:04:50.297Z,100042.83
2019-04-23T07:05:57.873Z,100041.47
2019-04-23T07:06:47.133Z,100039.92
2019-04-23T07:07:54.838Z,100038.98
2019-04-23T07:09:44.076Z,100037.23
2019-04-23T07:10:55.502Z,100036.30
2019-04-23T07:11:42.820Z,100035.12
2019-04-23T07:12:47.149Z,100033.91
2019-04-23T07:14:51.349Z,100031.27
2019-04-23T07:15:57.143Z,100029.98
2019-04-23T07:16:46.976Z,100028.55
2019-04-23T07:17:51.169Z,100027.72
2019-04-23T07:19:46.720Z,100025.43
2019-04-23T07:20:53.171Z,100024.83
2019-04-23T07:22:03.378Z,100024.05
2019-04-23T07:23:03.571Z,100022.88
2019-04-23T07:24:01.742Z,100022.20
2019-04-23T07:24:57.611Z,100021.29
2019-04-23T07:26:03.865Z,100020.05
2019-04-23T07:26:45.401Z,100019.17
2019-04-23T07:27:59.052Z,100017.83
2019-04-23T07:29:13.382Z,100016.81
2019-04-23T07:30:01.852Z,100015.86
2019-04-23T07:31:00.234Z,100014.38
2019-04-23T07:33:01.867Z,100011.88
2019-04-23T07:34:01.204Z,100010.55
2019-04-23T07:36:01.760Z,100009.34
2019-04-23T07:36:58.807Z,100008.08
2019-04-23T07:38:01.815Z,100007.40
2019-04-23T07:39:06.088Z,100006.53
2019-04-23T07:40:21.474Z,100005.77
2019-04-23T07:41:11.274Z,100004.74
2019-04-23T07:42:08.101Z,100004.03
2019-04-23T07:43:03.295Z,100003.34
2019-04-23T07:44:12.929Z,100002.37
2019-04-23T07:45:01.887Z,100001.53
2019-04-23T07:46:10.301Z,100000.65
2019-04-23T07:49:04.569Z,99998.52
2019-04-23T07:50:19.111Z,99997.61
2019-04-23T07:51:03.727Z,99996.27
2019-04-23T07:52:12.964Z,99994.84
2019-04-23T07:53:13.103Z,99993.95
2019-04-23T07:54:11.338Z,99993.12
2019-04-23T07:55:09.750Z,99991.81
2019-04-23T07:57:15.271Z,99990.16
2019-04-23T07:58:14.293Z,99989.45
2019-04-23T07:59:16.058Z,99988.20
2019-04-23T08:00:10.743Z,99987.53
2019-04-23T08:01:08.221Z,99986.66
2019-04-23T08:02:17.839Z,99985.56
2019-04-23T08:03:17.756Z,99985.06
2019-04-23T08:04:10.587Z,99984.41
2019-04-23T08:05:21.609Z,99983.29
2019-04-23T08:06:10.092Z,99982.45
2019-04-23T08:07:16.222Z,99981.79
2019-04-23T08:08:24.521Z,99981.05
2019-04-23T08:09:10.846Z,99980.09
2019-04-23T08:10:14.209Z,99978.76
2019-04-23T08:12:19.363Z,99976.92
2019-04-23T08:13:15.596Z,99976.09
2019-04-23T08:14:08.627Z,99974.96
2019-04-23T08:15:14.936Z,99974.36
2019-04-23T08:17:16.107Z,99972.58
2019-04-23T08:18:18.612Z,99971.80
2019-04-23T08:19:20.785Z,99970.55
2019-04-23T08:20:11.252Z,99969.39
2019-04-23T08:21:32.168Z,99968.33
2019-04-23T08:22:28.637Z,99967.33
2019-04-23T08:23:16.490Z,99965.95
2019-04-23T08:24:17.025Z,99965.16
2019-04-23T08:25:23.820Z,99964.16
2019-04-23T08:26:29.572Z,99963.03
2019-04-23T08:27:18.170Z,99961.94
2019-04-23T08:28:37.168Z,99960.70
2019-04-23T08:30:16.029Z,99958.50
2019-04-23T08:31:27.497Z,99957.06
2019-04-23T08:32:33.258Z,99956.00
2019-04-23T08:33:23.299Z,99955.09
2019-04-23T08:34:32.566Z,99953.16
2019-04-23T08:35:19.723Z,99952.42
2019-04-23T08:36:31.269Z,99952.16
2019-04-23T08:37:36.527Z,99951.33
2019-04-23T08:38:29.441Z,99950.13
2019-04-23T08:39:37.259Z,99948.88
2019-04-23T08:40:27.614Z,99947.87
2019-04-23T08:43:36.039Z,99944.80
2019-04-23T08:44:44.971Z,99943.86
2019-04-23T08:45:28.017Z,99942.52
2019-04-23T08:46:31.736Z,99941.33
2019-04-23T08:47:27.066Z,99940.19
2019-04-23T08:49:36.178Z,99938.98
2019-04-23T08:50:35.445Z,99938.03
2019-04-23T08:52:32.961Z,99936.58
2019-04-23T08:55:41.401Z,99934.53
2019-04-23T08:56:41.135Z,99933.61
2019-04-23T08:57:32.147Z,99932.81
2019-04-23T08:58:31.185Z,99931.53
2019-04-23T08:59:38.777Z,99930.39
2019-04-23T09:00:37.276Z,99929.66
2019-04-23T09:01:49.194Z,99928.81
2019-04-23T09:03:34.494Z,99927.58
2019-04-23T09:04:49.572Z,99927.44
2019-04-23T09:06:34.978Z,99925.77
2019-04-23T09:07:35.841Z,99925.28
2019-04-23T09:08:49.626Z,99924.70
2019-04-23T09:09:46.478Z,99924.68
2019-04-23T09:10:46.242Z,99924.42
2019-04-23T09:12:41.672Z,99923.92
2019-04-23T09:14:51.252Z,99922.48
2019-04-23T09:15:44.606Z,99922.46
2019-04-23T09:16:46.724Z,99921.89
2019-04-23T09:17:47.688Z,99921.11
2019-04-23T09:18:57.250Z,99918.36
2019-04-23T09:20:13.297Z,99908.85
2019-04-23T09:20:55.052Z,99909.02
2019-04-23T09:22:03.433Z,99908.41
2019-04-23T09:22:50.079Z,99908.70
2019-04-23T09:25:06.722Z,99908.75
2019-04-23T09:25:57.665Z,99908.83
2019-04-23T09:27:09.701Z,99909.39
2019-04-23T09:27:59.456Z,99909.70
2019-04-23T09:33:06.257Z,99909.64
2019-04-23T09:34:07.515Z,99909.47
2019-04-23T09:35:20.303Z,99909.47
2019-04-23T09:36:08.170Z,99908.85
2019-04-23T09:37:11.803Z,99908.34
2019-04-23T09:38:07.093Z,99907.25
2019-04-23T09:39:07.556Z,99906.55
2019-04-23T09:40:16.745Z,99905.50
2019-04-23T09:41:22.150Z,99904.87
2019-04-23T09:42:08.901Z,99904.05
2019-04-23T09:45:11.110Z,99903.50
2019-04-23T09:46:13.696Z,99902.89
2019-04-23T09:47:16.017Z,99902.23
2019-04-23T09:48:18.433Z,99902.01
2019-04-23T09:49:16.196Z,99901.70
2019-04-23T09:50:15.750Z,99901.02
2019-04-23T09:51:10.262Z,99900.39
2019-04-23T09:52:14.988Z,99899.98
2019-04-23T09:53:19.150Z,99900.25
2019-04-23T09:54:25.198Z,99900.31
2019-04-23T09:55:22.445Z,99899.64
2019-04-23T09:56:14.143Z,99900.06
2019-04-23T09:57:10.549Z,99899.88
2019-04-23T09:58:13.828Z,99900.06
2019-04-23T09:59:34.170Z,99900.04
2019-04-23T10:00:16.857Z,99900.23
2019-04-23T10:01:20.895Z,99899.97
2019-04-23T10:02:13.149Z,99900.05
2019-04-23T10:03:07.609Z,99900.17
2019-04-23T10:04:00.328Z,99900.16
2019-04-23T10:05:04.530Z,99899.90
2019-04-23T10:06:01.022Z,99899.69
2019-04-23T10:07:01.698Z,99899.30
2019-04-23T10:08:01.733Z,99899.30
2019-04-23T10:08:54.018Z,99899.42
2019-04-23T10:09:51.772Z,99899.25
2019-04-23T10:10:51.368Z,99898.78
2019-04-23T10:11:51.236Z,99898.30
2019-04-23T10:12:51.288Z,99897.95
2019-04-23T10:13:52.859Z,99897.78
2019-04-23T10:15:01.236Z,99897.19
2019-04-23T10:15:53.456Z,99897.43
2019-04-23T10:16:53.356Z,99896.91
2019-04-23T10:17:54.264Z,99895.98
2019-04-23T10:18:53.349Z,99895.47
2019-04-23T10:19:55.046Z,99894.95
2019-04-23T10:20:54.283Z,99894.14
2019-04-23T10:21:55.409Z,99894.31
2019-04-23T10:22:56.557Z,99894.11
2019-04-23T10:23:55.196Z,99893.64
2019-04-23T10:24:55.368Z,99892.69
2019-04-23T10:25:56.262Z,99891.79
2019-04-23T10:26:55.912Z,99891.55
2019-04-23T10:28:01.171Z,99890.94
2019-04-23T10:28:56.229Z,99891.02
2019-04-23T10:29:56.215Z,99889.89
2019-04-23T10:30:56.598Z,99889.34
2019-04-23T10:31:57.763Z,99887.84
2019-04-23T10:32:57.873Z,99887.61
2019-04-23T10:33:57.954Z,99886.91
2019-04-23T10:35:13.509Z,99886.53
2019-04-23T10:36:03.219Z,99886.18
2019-04-23T10:36:59.595Z,99885.20
2019-04-23T10:38:04.202Z,99884.86
2019-04-23T10:39:04.920Z,99883.80
2019-04-23T10:40:03.526Z,99883.18
2019-04-23T10:41:02.156Z,99882.93
2019-04-23T10:42:03.349Z,99882.52
2019-04-23T10:43:03.417Z,99881.63
2019-04-23T10:44:02.828Z,99881.00
2019-04-23T10:45:16.615Z,99881.00
2019-04-23T10:46:21.803Z,99880.63
2019-04-23T10:47:34.044Z,99879.86
2019-04-23T10:48:33.074Z,99879.14
2019-04-23T10:49:52.192Z,99878.92
2019-04-23T10:50:40.289Z,99878.80
2019-04-23T10:51:37.746Z,99878.10
2019-04-23T10:52:30.818Z,99877.13
2019-04-23T10:53:45.945Z,99876.53
2019-04-23T10:55:41.002Z,99875.16
2019-04-23T10:57:31.669Z,99872.95
2019-04-23T10:58:36.803Z,99871.84
2019-04-23T10:59:37.289Z,99870.66
2019-04-23T11:00:37.257Z,99869.78
2019-04-23T11:01:35.891Z,99867.95
2019-04-23T11:02:39.738Z,99866.63
2019-04-23T11:03:52.456Z,99865.34
2019-04-23T11:04:47.558Z,99864.19
2019-04-23T11:06:41.355Z,99862.36
2019-04-23T11:08:34.831Z,99860.22
2019-04-23T11:10:32.878Z,99858.48
2019-04-23T11:11:48.339Z,99857.66
2019-04-23T11:12:42.126Z,99856.97
2019-04-23T11:13:53.608Z,99856.45
2019-04-23T11:14:49.871Z,99856.08
2019-04-23T11:18:52.167Z,99853.83
2019-04-23T11:19:52.168Z,99853.63
2019-04-23T11:20:43.802Z,99852.95
2019-04-23T11:21:46.472Z,99852.23
2019-04-23T11:22:46.518Z,99851.41
2019-04-23T11:23:34.426Z,99850.70
2019-04-23T11:25:02.182Z,99849.71
2019-04-23T11:26:49.576Z,99848.08
2019-04-23T11:27:58.526Z,99846.39
2019-04-23T11:28:46.653Z,99845.16
2019-04-23T11:29:48.684Z,99843.52
2019-04-23T11:30:41.589Z,99842.48
2019-04-23T11:32:57.090Z,99840.95
2019-04-23T11:33:57.442Z,99840.05
2019-04-23T11:35:04.963Z,99839.20
2019-04-23T11:36:06.237Z,99838.20
2019-04-23T11:36:54.323Z,99836.62
2019-04-23T11:38:58.516Z,99835.00
2019-04-23T11:39:49.591Z,99834.25
2019-04-23T11:40:41.712Z,99833.69
2019-04-23T11:43:11.485Z,99831.52
2019-04-23T11:43:49.016Z,99830.31
2019-04-23T11:45:57.622Z,99828.52
2019-04-23T11:49:59.482Z,99824.18
2019-04-23T11:51:26.235Z,99823.28
2019-04-23T11:52:01.506Z,99822.21
2019-04-23T11:53:58.068Z,99820.99
2019-04-23T11:55:55.733Z,99819.95
2019-04-23T11:58:08.263Z,99818.21
2019-04-23T11:58:52.434Z,99818.00
2019-04-23T12:01:04.732Z,99818.47
2019-04-23T12:03:02.797Z,99818.33
2019-04-23T12:04:08.605Z,99817.70
2019-04-23T12:05:15.226Z,99817.18
2019-04-23T12:06:07.889Z,99817.25
2019-04-23T12:07:00.106Z,99816.63
2019-04-23T12:08:03.555Z,99816.07
2019-04-23T12:08:57.124Z,99816.28
2019-04-23T12:11:24.158Z,99814.80
2019-04-23T12:12:11.178Z,99813.12
2019-04-23T12:12:17.264Z,99814.11
2019-04-23T12:13:11.948Z,99811.85
2019-04-23T12:15:13.415Z,99811.38
2019-04-23T12:16:13.036Z,99812.00
2019-04-23T12:17:18.646Z,99812.14
2019-04-23T12:18:10.049Z,99812.23
2019-04-23T12:19:33.092Z,99811.86
2019-04-23T12:20:28.642Z,99812.02
2019-04-23T12:21:12.595Z,99811.16
2019-04-23T12:22:17.491Z,99810.53
2019-04-23T12:24:28.225Z,99808.73
2019-04-23T12:26:22.855Z,99806.89
2019-04-23T12:28:14.169Z,99805.34
2019-04-23T12:29:23.372Z,99804.84
2019-04-23T12:30:16.461Z,99805.77
2019-04-23T12:31:17.265Z,99805.36
2019-04-23T12:32:35.687Z,99805.49
2019-04-23T12:33:22.240Z,99805.66
2019-04-23T12:34:17.995Z,99804.80
2019-04-23T12:36:23.940Z,99804.16
2019-04-23T12:37:21.387Z,99804.13
2019-04-23T12:39:21.986Z,99803.97
2019-04-23T12:40:20.024Z,99802.86
2019-04-23T12:41:21.168Z,99802.20
2019-04-23T12:42:43.654Z,99801.47
2019-04-23T12:44:22.375Z,99799.30
2019-04-23T12:46:27.647Z,99798.23
2019-04-23T12:47:38.069Z,99797.02
2019-04-23T12:50:03.790Z,99796.05
2019-04-23T12:50:41.637Z,99794.69
2019-04-23T12:51:34.833Z,99794.28
2019-04-23T12:52:28.370Z,99792.95
2019-04-23T12:53:32.205Z,99791.77
2019-04-23T12:54:33.532Z,99790.34
2019-04-23T12:55:34.222Z,99789.64
2019-04-23T12:56:30.212Z,99788.54
2019-04-23T12:57:30.770Z,99787.98
2019-04-23T12:59:27.216Z,99785.89
2019-04-23T13:00:25.742Z,99784.92
2019-04-23T13:01:25.594Z,99783.84
2019-04-23T13:02:32.787Z,99782.53
2019-04-23T13:04:24.982Z,99780.75
2019-04-23T13:06:23.674Z,99779.33
2019-04-23T13:07:36.718Z,99778.94
2019-04-23T13:08:33.745Z,99777.47
2019-04-23T13:09:41.882Z,99775.36
2019-04-23T13:10:30.321Z,99773.58
2019-04-23T13:11:36.653Z,99772.67
2019-04-23T13:13:32.414Z,99769.75
2019-04-23T13:14:39.493Z,99768.70
2019-04-23T13:15:33.388Z,99767.56
2019-04-23T13:16:40.286Z,99766.64
2019-04-23T13:17:44.536Z,99765.43
2019-04-23T13:18:34.063Z,99764.02
2019-04-23T13:21:51.968Z,99760.45
2019-04-23T13:22:45.897Z,99758.78
2019-04-23T13:24:32.758Z,99755.97
2019-04-23T13:26:34.183Z,99753.45
2019-04-23T13:27:42.619Z,99751.95
2019-04-23T13:28:34.006Z,99751.27
2019-04-23T13:29:38.113Z,99750.91
2019-04-23T13:30:39.149Z,99750.28
2019-04-23T13:31:29.310Z,99749.58
2019-04-23T13:32:38.379Z,99748.84
2019-04-23T13:33:40.911Z,99748.49
2019-04-23T13:34:41.179Z,99747.63
2019-04-23T13:35:50.601Z,99746.72
2019-04-23T13:36:36.249Z,99746.84
2019-04-23T13:37:43.124Z,99746.08
2019-04-23T13:39:14.746Z,99745.78
2019-04-23T13:39:39.613Z,99745.05
2019-04-23T13:40:46.402Z,99745.00
2019-04-23T13:41:31.693Z,99744.41
2019-04-23T13:43:40.486Z,99743.27
2019-04-23T13:44:42.051Z,99742.27
2019-04-23T13:46:35.655Z,99740.46
2019-04-23T13:47:53.301Z,99739.63
2019-04-23T13:48:37.648Z,99738.80
2019-04-23T13:49:45.305Z,99737.98
2019-04-23T13:51:40.002Z,99735.63
2019-04-23T13:54:56.387Z,99734.47
2019-04-23T13:55:00.959Z,99733.94
2019-04-23T13:55:42.732Z,99733.31
2019-04-23T13:57:13.151Z,99732.05
2019-04-23T13:58:04.932Z,99731.27
2019-04-23T13:58:43.679Z,99731.02
2019-04-23T14:00:58.073Z,99729.06
2019-04-23T14:01:44.668Z,99728.15
2019-04-23T14:03:47.986Z,99727.17
2019-04-23T14:04:55.963Z,99725.90
2019-04-23T14:05:49.391Z,99725.10
2019-04-23T14:06:49.403Z,99724.55
2019-04-23T14:07:54.725Z,99724.12
2019-04-23T14:08:53.652Z,99723.20
2019-04-23T14:09:54.986Z,99722.39
2019-04-23T14:10:52.144Z,99720.91
2019-04-23T14:11:46.676Z,99720.06
2019-04-23T14:13:08.746Z,99719.03
2019-04-23T14:14:55.995Z,99718.30
2019-04-23T14:16:11.633Z,99718.05
2019-04-23T14:17:00.163Z,99717.19
2019-04-23T14:18:17.437Z,99717.24
2019-04-23T14:18:58.398Z,99716.95
2019-04-23T14:19:57.431Z,99715.39
2019-04-23T14:20:55.362Z,99714.08
2019-04-23T14:22:20.976Z,99713.00
2019-04-23T14:25:04.057Z,99709.99
2019-04-23T14:26:10.992Z,99709.19
2019-04-23T14:26:58.313Z,99709.11
2019-04-23T14:28:07.385Z,99708.28
2019-04-23T14:28:55.275Z,99707.28
2019-04-23T14:30:07.302Z,99707.41
2019-04-23T14:30:59.231Z,99707.19
2019-04-23T14:32:03.061Z,99706.83
2019-04-23T14:33:00.350Z,99706.78
2019-04-23T14:34:11.479Z,99707.31
2019-04-23T14:35:10.811Z,99707.30
2019-04-23T14:36:00.496Z,99707.48
2019-04-23T14:38:15.859Z,99706.63
2019-04-23T14:39:05.711Z,99706.02
2019-04-23T14:40:06.116Z,99705.55
2019-04-23T14:41:15.030Z,99704.98
2019-04-23T14:42:06.922Z,99704.13
2019-04-23T14:43:06.589Z,99703.78
2019-04-23T14:44:14.582Z,99703.67
2019-04-23T14:45:09.838Z,99703.09
2019-04-23T14:47:11.949Z,99702.23
2019-04-23T14:48:12.297Z,99701.72
2019-04-23T14:49:03.966Z,99701.64
2019-04-23T14:51:13.444Z,99699.64
2019-04-23T14:52:09.009Z,99698.09
2019-04-23T14:53:13.156Z,99697.17
2019-04-23T14:54:07.286Z,99696.48
2019-04-23T14:56:13.228Z,99695.19
2019-04-23T14:58:17.670Z,99694.66
2019-04-23T14:59:19.461Z,99693.97
2019-04-23T15:00:18.381Z,99693.90
2019-04-23T15:01:24.997Z,99693.72
2019-04-23T15:02:14.492Z,99693.72
2019-04-23T15:02:27.081Z,99687.47
2019-04-23T15:03:32.414Z,99684.70
2019-04-23T15:04:28.921Z,99684.50
2019-04-23T15:07:28.633Z,99684.70
2019-04-23T15:08:39.752Z,99685.00
2019-04-23T15:09:35.187Z,99685.40
2019-04-23T15:10:32.635Z,99685.69
2019-04-23T15:11:38.740Z,99685.88
2019-04-23T15:12:36.638Z,99685.76
2019-04-23T15:14:36.155Z,99686.09
2019-04-23T15:15:33.966Z,99686.08
2019-04-23T15:17:33.962Z,99685.97
2019-04-23T15:18:46.766Z,99685.89
2019-04-23T15:19:49.614Z,99685.59
2019-04-23T15:20:39.239Z,99685.48
2019-04-23T15:22:47.944Z,99686.39
2019-04-23T15:24:37.689Z,99686.47
2019-04-23T15:25:52.968Z,99686.52
2019-04-23T15:28:14.123Z,99685.66
2019-04-23T15:29:28.092Z,99685.95
2019-04-23T15:30:35.414Z,99685.91
2019-04-23T15:31:39.497Z,99685.95
2019-04-23T15:32:46.815Z,99685.87
2019-04-23T15:33:48.984Z,99685.67
2019-04-23T15:34:36.865Z,99685.93
2019-04-23T15:35:57.790Z,99686.09
2019-04-23T15:36:58.073Z,99685.93
2019-04-23T15:37:58.392Z,99685.98
2019-04-23T15:39:46.518Z,99685.86
2019-04-23T15:40:45.258Z,99685.56
2019-04-23T15:41:53.038Z,99685.76
2019-04-23T15:42:52.115Z,99685.06
2019-04-23T15:43:51.124Z,99685.65
2019-04-23T15:44:41.822Z,99685.64
2019-04-23T15:45:50.117Z,99685.52
2019-04-23T15:47:53.381Z,99685.33
2019-04-23T15:48:54.871Z,99685.38
2019-04-23T15:49:43.979Z,99685.38
2019-04-23T15:50:53.850Z,99685.37
2019-04-23T15:51:52.577Z,99685.78
2019-04-23T15:52:55.371Z,99686.19
2019-04-23T15:53:52.599Z,99686.81
2019-04-23T15:54:47.213Z,99686.77
2019-04-23T15:55:56.546Z,99686.98
2019-04-23T15:56:55.302Z,99687.68
2019-04-23T15:59:02.552Z,99688.78
2019-04-23T15:59:48.309Z,99689.41
2019-04-23T16:00:48.218Z,99689.34
2019-04-23T16:01:40.108Z,99689.64
2019-04-23T16:02:22.819Z,99689.60
2019-04-23T16:03:26.782Z,99689.49
2019-04-23T16:04:24.161Z,99689.48
2019-04-23T16:05:23.795Z,99689.69
2019-04-23T16:06:27.272Z,99689.92
2019-04-23T16:07:41.353Z,99690.16
2019-04-23T16:09:05.416Z,99689.98
2019-04-23T16:09:55.650Z,99689.84
2019-04-23T16:11:11.529Z,99690.14
2019-04-23T16:11:48.163Z,99690.48
2019-04-23T16:12:58.273Z,99691.09
2019-04-23T16:14:13.091Z,99691.48
2019-04-23T16:15:58.007Z,99692.47
2019-04-23T16:16:59.751Z,99692.80
2019-04-23T16:18:11.472Z,99693.12
2019-04-23T16:19:00.585Z,99692.87
2019-04-23T16:20:07.744Z,99693.23
2019-04-23T16:21:03.732Z,99693.63
2019-04-23T16:22:01.990Z,99694.22
2019-04-23T16:22:52.969Z,99694.69
2019-04-23T16:24:01.086Z,99694.70
2019-04-23T16:25:02.676Z,99694.86
2019-04-23T16:26:05.506Z,99695.53
2019-04-23T16:27:04.448Z,99696.44
2019-04-23T16:28:03.246Z,99696.89
2019-04-23T16:30:12.839Z,99697.84
2019-04-23T16:31:07.582Z,99698.10
2019-04-23T16:32:08.893Z,99699.35
2019-04-23T16:33:57.330Z,99700.30
2019-04-23T16:35:12.232Z,99700.89
2019-04-23T16:36:21.800Z,99700.94
2019-04-23T16:37:10.197Z,99701.31
2019-04-23T16:38:18.404Z,99702.28
2019-04-23T16:39:07.575Z,99702.70
2019-04-23T16:40:16.315Z,99702.78
2019-04-23T16:41:07.906Z,99702.95
2019-04-23T16:43:08.963Z,99703.00
2019-04-23T16:44:06.740Z,99703.23
2019-04-23T16:45:12.346Z,99702.87
2019-04-23T16:46:07.613Z,99702.70
2019-04-23T16:47:12.608Z,99702.94
2019-04-23T16:48:17.148Z,99703.31
2019-04-23T16:50:11.437Z,99703.94
2019-04-23T16:51:25.271Z,99703.70
2019-04-23T16:52:08.409Z,99703.27
2019-04-23T16:53:15.792Z,99703.20
2019-04-23T16:54:10.325Z,99703.13
2019-04-23T16:55:07.497Z,99703.23
2019-04-23T16:56:38.281Z,99703.06
2019-04-23T16:57:24.353Z,99702.66
2019-04-23T16:58:21.890Z,99702.77
2019-04-23T16:59:15.563Z,99702.70
2019-04-23T17:01:23.111Z,99703.19
2019-04-23T17:02:16.055Z,99703.19
2019-04-23T17:03:19.678Z,99703.98
2019-04-23T17:04:17.724Z,99703.99
2019-04-23T17:05:19.653Z,99704.30
2019-04-23T17:07:06.921Z,99705.14
2019-04-23T17:08:36.919Z,99705.14
2019-04-23T17:10:39.596Z,99706.14
2019-04-23T17:12:13.486Z,99706.94
2019-04-23T17:13:18.347Z,99706.71
2019-04-23T17:15:23.189Z,99706.75
2019-04-23T17:17:15.073Z,99707.49
2019-04-23T17:19:23.902Z,99708.05
2019-04-23T17:20:27.185Z,99708.95
2019-04-23T17:21:16.840Z,99709.40
2019-04-23T17:22:17.843Z,99709.64
2019-04-23T17:24:25.825Z,99710.81
2019-04-23T17:25:20.502Z,99710.95
2019-04-23T17:26:25.630Z,99711.27
2019-04-23T17:27:22.546Z,99711.81
2019-04-23T17:28:24.162Z,99712.20
2019-04-23T17:29:41.938Z,99713.50
2019-04-23T17:30:28.357Z,99714.09
2019-04-23T17:32:36.800Z,99714.98
2019-04-23T17:34:30.868Z,99715.73
2019-04-23T17:35:27.525Z,99716.38
2019-04-23T17:37:29.898Z,99718.09
2019-04-23T17:38:33.661Z,99718.64
2019-04-23T17:39:43.002Z,99719.53
2019-04-23T17:40:44.826Z,99719.87
2019-04-23T17:41:31.192Z,99720.25
2019-04-23T17:42:27.469Z,99720.97
2019-04-23T17:43:35.103Z,99721.69
2019-04-23T17:44:36.735Z,99722.40